Pagrindinis puslapis
METAR-TAF:

METAR-TAF

Oro uostai :

Akaba, Jordanija

platuma: 29-38N, ilguma: 035-01E, Aukštis: 53 m

Dabartinis oras

Ataskaita buvo paskelbta 56 minutes, ne 12:00 UTC
Vėjas 6 kt iš Pietvakarių
Temperatūra 42°C
Drėgmė 16%
Slėgis 1005 hPa
Matomumas 10 km arba daugiau
nėra debesų žemiau 1500 m ir nėra kamuolinių lietaus debesų

METAR: OJAQ 221200Z 22006KT CAVOK 42/11 Q1005 NOSIG

Laikas: 15:56 (12:56 UTC)

Prognozė

Ataskaita buvo paskelbta 2 valandos ir 0 minutes, ne 10:56 UTC
Prognozė galioja nuo 22 metu 12 UTC su 23 metu 18 UTC
Vėjas 8 kt iš Šiaurės
Matomumas: 7000 m
Tikimybė 30%
nuo 22 metu 12 UTC su 22 metu 18 UTC
Vėjas 16 kt iš Šiaurės

TAF: OJAQ 221056Z 2212/2318 36008KT 7000 NSC PROB30 2212/2218 35016KT

Orai ataskaitas ir orų prognozės (METAR, TAF).

turimą stotys yra geltonos ir raudonos taškus žemėlapyje.

Perkelti pele per norėdami pamatyti stoties vardą.

Tada spustelėkite, norėdami matyti oro stebėjimo ir prognozės.

Norėdami pakeisti žemėlapį: spustelėkite ant žalios mygtukų su juodo kryžiaus žemyn,; žalią mygtuką su brūkšneliu, jei norite nutolinti; arba žalių rodyklių gretimoms žemėlapius.


METAR-TAF: